M/T Havva Ana — V7RE3 — position and weather

sailwx.info

Track history (hours):
 
Tides and Currents Weather Stations Pressure Air Temp Water Temp Dewpoint Dewpoint Depression Visibility Wind Speed Wind Dir Waves Ship Positions

M/T Havva Ana

Last reported at 2015-Apr-19 02:33 UTC. Time now 2015-May-04 01:58 UTC.
Position N 39°29' E 018°42'.
Warning: this ship's position is 14 days out of date.

Length 124 m; draft 5 m.

Type: Tanker. MMSI: 538003488.

Date/timePositionNaut miles runAvg speedWind from/ knotsBaromVisibWave heightAir tempDewpointWater temp
2015-Apr-19 02:33N 39°29' E 018°42'1212.3
2015-Apr-19 01:33N 39°41' E 018°41'1212.2
2015-Apr-19 00:33N 39°54' E 018°39'1212.3
2015-Apr-18 23:33N 40°06' E 018°38'1211.7
2015-Apr-18 22:33N 40°17' E 018°33'1211.8
2015-Apr-18 21:33N 40°27' E 018°24'  
2015-Apr-14 23:33N 40°35' E 018°18'1111.0
2015-Apr-14 22:33N 40°26' E 018°27'1110.9
2015-Apr-14 21:34N 40°17' E 018°34'1111.2
2015-Apr-14 20:34N 40°07' E 018°41'1111.2
2015-Apr-14 19:33N 39°56' E 018°43'1111.4
2015-Apr-14 18:34N 39°44' E 018°44'  
Track history (hours):
 
Tides and Currents Weather Stations Pressure Air Temp Water Temp Dewpoint Dewpoint Depression Visibility Wind Speed Wind Dir Waves Ship Positions

M/T Havva Ana

Last reported at 2015-Apr-19 02:33 UTC. Time now 2015-May-04 01:58 UTC.
Position N 39°29' E 018°42'.
Warning: this ship's position is 14 days out of date.

Length 124 m; draft 5 m.

Type: Tanker. MMSI: 538003488.

Date/timePositionNaut miles runAvg speedWind from/ knotsBaromVisibWave heightAir tempDewpointWater temp
2015-Apr-19 02:33N 39°29' E 018°42'1212.3
2015-Apr-19 01:33N 39°41' E 018°41'1212.2
2015-Apr-19 00:33N 39°54' E 018°39'1212.3
2015-Apr-18 23:33N 40°06' E 018°38'1211.7
2015-Apr-18 22:33N 40°17' E 018°33'1211.8
2015-Apr-18 21:33N 40°27' E 018°24'  
2015-Apr-14 23:33N 40°35' E 018°18'1111.0
2015-Apr-14 22:33N 40°26' E 018°27'1110.9
2015-Apr-14 21:34N 40°17' E 018°34'1111.2
2015-Apr-14 20:34N 40°07' E 018°41'1111.2
2015-Apr-14 19:33N 39°56' E 018°43'1111.4
2015-Apr-14 18:34N 39°44' E 018°44'  

Dump ship's entire track history